This is the latest recevied weather packets stored in our database for station/object K4CRS-13. If no packets are shown the sender has not sent any weather packets the latest 10 day(s).
| Time | Temp. | Humidity | Pressure | Rain* | Wind** | Luminosity | Snow |
|---|---|---|---|---|---|---|---|
| 1787687835 | 32.22° C | 50% | 1051.6 hPa | 0 mm | - | 657 W/m² | - |
| 1787687534 | 32.78° C | 49% | 1051.5 hPa | 0 mm | - | 662 W/m² | - |
| 1787687230 | 32.78° C | 50% | 1051.5 hPa | 0 mm | - | 681 W/m² | - |
| 1787686926 | 33.33° C | 48% | 1051.6 hPa | 0 mm | - | 683 W/m² | - |
| 1787686622 | 33.89° C | 47% | 1051.8 hPa | 0 mm | - | 685 W/m² | - |
| 1787686317 | 32.78° C | 49% | 1051.8 hPa | 0 mm | - | 699 W/m² | - |
| 1787686013 | 32.78° C | 48% | 1051.9 hPa | 0 mm | - | 716 W/m² | - |
| 1787685708 | 32.78° C | 48% | 1051.8 hPa | 0 mm | - | 714 W/m² | - |
| 1787685408 | 32.78° C | 48% | 1052 hPa | 0 mm | - | 728 W/m² | - |
| 1787685107 | 33.89° C | 47% | 1052 hPa | 0 mm | - | 743 W/m² | - |
| 1787684804 | 33.33° C | 47% | 1051.9 hPa | 0 mm | - | 755 W/m² | - |
| 1787684502 | 33.33° C | 51% | 1052 hPa | 0 mm | - | 763 W/m² | - |
| 1787684197 | 33.33° C | 53% | 1052.1 hPa | 0 mm | - | 790 W/m² | - |
| 1787683893 | 32.22° C | 52% | 1052.3 hPa | 0 mm | - | 808 W/m² | - |
| 1787683587 | 32.22° C | 51% | 1052.2 hPa | 0 mm | - | 812 W/m² | - |
| 1787683282 | 32.22° C | 51% | 1052.3 hPa | 0 mm | - | 199 W/m² | - |
| 1787682980 | 33.33° C | 48% | 1052.4 hPa | 0 mm | - | 203 W/m² | - |
| 1787682675 | 32.22° C | 50% | 1052.6 hPa | 0 mm | - | 757 W/m² | - |
| 1787682371 | 31.67° C | 51% | 1052.3 hPa | 0 mm | - | 758 W/m² | - |
| 1787682067 | 32.78° C | 47% | 1052.5 hPa | 0 mm | - | 769 W/m² | - |
| 1787681762 | 32.22° C | 50% | 1052.9 hPa | 0 mm | - | 772 W/m² | - |
| 1787681456 | 32.22° C | 50% | 1052.8 hPa | 0 mm | - | 769 W/m² | - |
| 1787681156 | 32.78° C | 47% | 1052.8 hPa | 0 mm | - | 774 W/m² | - |
| 1787680851 | 32.78° C | 47% | 1052.9 hPa | 0 mm | - | 774 W/m² | - |
| 1787680546 | 32.78° C | 47% | 1053 hPa | 0 mm | - | 771 W/m² | - |
* Rain latest hour (hover to see other rain measurements)
** Current wind speed in m/s (hover to see current wind gust speed)